createdAt,value
2019-03-05T00:00:01.568Z,0
2019-03-05T00:10:01.135Z,0
2019-03-05T00:20:00.849Z,0
2019-03-05T00:30:01.410Z,0
2019-03-05T00:40:00.820Z,0
2019-03-05T00:50:01.114Z,0
2019-03-05T01:00:01.321Z,0
2019-03-05T01:10:01.154Z,0
2019-03-05T01:20:00.901Z,0
2019-03-05T01:30:01.314Z,0
2019-03-05T01:40:01.312Z,0
2019-03-05T01:50:01.154Z,0
2019-03-05T02:00:01.367Z,0
2019-03-05T02:10:01.138Z,0
2019-03-05T02:20:01.166Z,0
2019-03-05T02:30:01.233Z,0
2019-03-05T02:40:01.105Z,0
2019-03-05T02:50:01.175Z,0
2019-03-05T03:00:01.346Z,0
2019-03-05T03:10:01.015Z,0
2019-03-05T03:20:01.113Z,0
2019-03-05T03:30:01.353Z,0
2019-03-05T03:40:01.047Z,0
2019-03-05T03:50:00.862Z,0
2019-03-05T04:00:00.953Z,0
2019-03-05T04:10:00.883Z,0
2019-03-05T04:20:01.120Z,0
2019-03-05T04:30:00.780Z,0
2019-03-05T04:40:03.223Z,0
2019-03-05T04:50:00.801Z,0
2019-03-05T05:00:00.935Z,0
2019-03-05T05:10:01.155Z,0
2019-03-05T05:20:01.154Z,0
2019-03-05T05:30:01.400Z,3
2019-03-05T05:40:00.642Z,40
2019-03-05T05:50:00.931Z,177
2019-03-05T06:00:01.220Z,503
2019-03-05T06:10:00.992Z,650
2019-03-05T06:20:01.214Z,2083
2019-03-05T06:30:01.023Z,4037
2019-03-05T06:40:00.928Z,4710
2019-03-05T06:50:01.124Z,3680
2019-03-05T07:00:01.261Z,4223
2019-03-05T07:10:01.285Z,5547
2019-03-05T07:20:01.292Z,11160
2019-03-05T07:30:01.008Z,5407
2019-03-05T07:40:01.445Z,9597
2019-03-05T07:50:00.989Z,10007
2019-03-05T08:00:01.664Z,16387
2019-03-05T08:10:01.479Z,11157
2019-03-05T08:20:01.381Z,15187
2019-03-05T08:30:01.069Z,14430
2019-03-05T08:40:01.006Z,9490
2019-03-05T08:50:00.897Z,14620
2019-03-05T09:00:01.206Z,12503
2019-03-05T09:10:01.213Z,18280
2019-03-05T09:20:01.053Z,2630
2019-03-05T09:30:00.976Z,13283
2019-03-05T09:40:01.227Z,5260
2019-03-05T09:50:01.173Z,8087
2019-03-05T10:00:01.351Z,41390
2019-03-05T10:10:01.008Z,21127
2019-03-05T10:20:01.222Z,24560
2019-03-05T10:30:01.329Z,40373
2019-03-05T10:40:01.213Z,44100
2019-03-05T10:50:01.266Z,22453
2019-03-05T11:00:01.430Z,16247
2019-03-05T11:10:01.143Z,24577
2019-03-05T11:20:01.302Z,65593
2019-03-05T11:30:01.625Z,54827
2019-03-05T11:40:01.229Z,46643
2019-03-05T11:50:01.210Z,7687
2019-03-05T12:00:01.548Z,32847
2019-03-05T12:10:01.210Z,40960
2019-03-05T12:20:01.205Z,41463
2019-03-05T12:30:01.515Z,21950
2019-03-05T12:40:01.048Z,21873
2019-03-05T12:50:01.238Z,33267
2019-03-05T13:00:01.500Z,20457
2019-03-05T13:10:02.490Z,22313
2019-03-05T13:20:00.956Z,11720
2019-03-05T13:30:01.402Z,11913
2019-03-05T13:40:01.263Z,10457
2019-03-05T13:50:04.266Z,24543
2019-03-05T14:00:01.284Z,23863
2019-03-05T14:10:01.529Z,9627
2019-03-05T14:20:01.013Z,12387
2019-03-05T14:30:02.678Z,9297
2019-03-05T14:40:18.991Z,13223
2019-03-05T14:50:00.979Z,10823
2019-03-05T15:00:02.029Z,20320
2019-03-05T15:10:01.228Z,25900
2019-03-05T15:20:00.848Z,9680
2019-03-05T15:30:01.734Z,16350
2019-03-05T15:40:01.252Z,7027
2019-03-05T15:50:01.441Z,6707
2019-03-05T16:00:01.439Z,8257
2019-03-05T16:10:01.305Z,3783
2019-03-05T16:20:01.120Z,4043
2019-03-05T16:30:01.171Z,2657
2019-03-05T16:40:05.096Z,1607
2019-03-05T16:50:01.389Z,847
2019-03-05T17:00:01.161Z,457
2019-03-05T17:10:01.009Z,180
2019-03-05T17:20:01.278Z,40
2019-03-05T17:30:01.646Z,7
2019-03-05T17:40:01.219Z,0
2019-03-05T17:50:00.916Z,0
2019-03-05T18:00:00.968Z,0
2019-03-05T18:10:01.843Z,0
2019-03-05T18:20:01.102Z,0
2019-03-05T18:30:01.150Z,0
2019-03-05T18:40:00.882Z,0
2019-03-05T18:50:01.160Z,0
2019-03-05T19:00:00.913Z,0
2019-03-05T19:10:01.072Z,0
2019-03-05T19:20:00.943Z,0
2019-03-05T19:30:01.364Z,0
2019-03-05T19:40:00.894Z,0
2019-03-05T19:50:01.156Z,0
2019-03-05T20:00:01.006Z,0
2019-03-05T20:10:00.410Z,0
2019-03-05T20:20:01.143Z,0
2019-03-05T20:30:01.353Z,0
2019-03-05T20:40:02.715Z,0
2019-03-05T20:50:00.928Z,0
2019-03-05T21:00:00.910Z,0
2019-03-05T21:10:01.514Z,0
2019-03-05T21:20:00.912Z,0
2019-03-05T21:30:00.934Z,0
2019-03-05T21:40:01.227Z,0
2019-03-05T21:50:01.075Z,0
2019-03-05T22:00:01.044Z,0
2019-03-05T22:10:00.859Z,0
2019-03-05T22:20:00.902Z,0
2019-03-05T22:30:01.383Z,0
2019-03-05T22:40:01.254Z,0
2019-03-05T22:50:00.923Z,0
2019-03-05T23:00:02.880Z,0
2019-03-05T23:10:00.891Z,0
2019-03-05T23:20:00.883Z,0
2019-03-05T23:30:01.305Z,0
2019-03-05T23:40:01.119Z,0
2019-03-05T23:50:01.178Z,0
